Terminal Aerodrome Forecast
Issued by NWS Sterling, VA

Home | Current Version | Previous Version | Text Only | Print | Product List | Glossary On
Versions: 1 2 3 4 5 6 7 8 9 10 11 12 13 14 15 16 17
000
FTUS41 KLWX 012300 RRA
TAFCHO
TAF
KCHO 012343Z 0200/0224 VRB03KT P6SM OVC070
     FM020300 00000KT 5SM -RA OVC025 WS020/19035KT
     FM020500 00000KT 2SM -RA OVC008 WS020/20035KT
     FM021000 VRB03KT 1SM -RA OVC003 WS020/22040KT
     FM021200 22004KT P6SM OVC003 WS020/24035KT
     FM021400 27008KT P6SM BKN045
     FM021700 28015G25KT P6SM SCT100=

USA.gov is the U.S. government's official web portal to all federal, state and local government web resources and services.